Time;durP1;ratioP1;P1;durP2;ratioP2;P2;SDS_P1;SDS_P2;PMS_P1;PMS_P2;Temp;Humidity;BMP_temperature;BMP_pressure;BME280_temperature;BME280_humidity;BME280_pressure;Samples;Min_cycle;Max_cycle;Signal;HPM_P1;HPM_P2
2021/10/02 00:45:00;;;;;;;;;;;;;;;;;;5032724;28;19921;-83
2021/10/02 00:47:27;;;;;;;;;;;;;;;;;;5048894;28;19955;-83
2021/10/02 00:49:53;;;;;;;;;;;;;;;;;;5032070;28;20040;-82
2021/10/02 00:52:18;;;;;;;;;;;;;;;;;;4998904;28;19960;-82
2021/10/02 00:54:44;;;;;;;;;;;;;;;;;;5015227;28;19917;-82
2021/10/02 00:57:09;;;;;;;;;;;;;;;;;;4993016;28;20011;-82
2021/10/02 00:59:35;;;;;;;;;;;;;;;;;;5015361;28;19917;-81
2021/10/02 01:02:07;;;;;;;;;;;;;;;;;;5027739;28;19913;-81
2021/10/02 01:04:39;;;;;;;;;;;;;;;;;;5013753;28;20004;-82
2021/10/02 01:07:22;;;;;;;;;;;;;;;;;;5046623;28;19927;-82
2021/10/02 01:10:10;;;;;;;;;;;;;;;;;;5031309;28;20055;-82
2021/10/02 01:12:42;;;;;;;;;;;;;;;;;;5048592;28;20367;-82
2021/10/02 01:15:08;;;;;;;;;;;;;;;;;;5045022;28;19967;-82
2021/10/02 01:17:39;;;;;;;;;;;;;;;;;;5027951;28;19917;-82
2021/10/02 01:20:08;;;;;;;;;;;;;;;;;;5012440;28;20462;-82
2021/10/02 01:22:53;;;;;;;;;;;;;;;;;;4995426;28;19918;-82
2021/10/02 01:25:21;;;;;;;;;;;;;;;;;;5051371;28;19919;-82
2021/10/02 01:28:04;;;;;;;;;;;;;;;;;;5051682;28;19966;-82
2021/10/02 01:33:08;;;;;;;;;;;;;;;;;;5046982;28;19917;-82
2021/10/02 01:35:48;;;;;;;;;;;;;;;;;;5047419;28;19964;-82
2021/10/02 01:49:09;;;;;;;;;;;;;;;;;;5030770;28;19933;-83
2021/10/02 01:51:35;;;;;;;;;;;;;;;;;;4998543;28;20287;-83
2021/10/02 01:54:00;;;;;;;;;;;;;;;;;;4998277;28;19944;-83
2021/10/02 01:56:26;;;;;;;;;;;;;;;;;;4998369;28;20335;-83
2021/10/02 01:58:54;;;;;;;;;;;;;;;;;;5030791;28;19914;-83
2021/10/02 02:01:19;;;;;;;;;;;;;;;;;;4998809;28;20274;-83
2021/10/02 02:03:44;;;;;;;;;;;;;;;;;;4997822;28;19917;-83
2021/10/02 02:06:10;;;;;;;;;;;;;;;;;;5011016;28;19921;-82
2021/10/02 02:08:35;;;;;;;;;;;;;;;;;;5027420;28;20391;-83
2021/10/02 02:11:00;;;;;;;;;;;;;;;;;;5007096;28;19924;-83
2021/10/02 02:13:25;;;;;;;;;;;;;;;;;;5036972;28;19913;-82
2021/10/02 02:15:51;;;;;;;;;;;;;;;;;;5011385;28;20363;-83
2021/10/02 02:18:17;;;;;;;;;;;;;;;;;;5011358;28;20442;-83
2021/10/02 02:20:43;;;;;;;;;;;;;;;;;;5026250;28;19925;-83
2021/10/02 02:23:09;;;;;;;;;;;;;;;;;;5016561;28;19917;-83
2021/10/02 02:25:35;;;;;;;;;;;;;;;;;;4998001;28;19944;-82
2021/10/02 02:28:01;;;;;;;;;;;;;;;;;;5030515;28;20024;-82
2021/10/02 02:30:26;;;;;;;;;;;;;;;;;;5030541;28;20778;-83
2021/10/02 02:32:51;;;;;;;;;;;;;;;;;;5030989;28;19921;-83
2021/10/02 02:35:20;;;;;;;;;;;;;;;;;;5031161;28;19914;-82
2021/10/02 02:37:45;;;;;;;;;;;;;;;;;;5013748;28;19925;-83
2021/10/02 02:40:11;;;;;;;;;;;;;;;;;;4997084;28;19917;-83
2021/10/02 02:42:36;;;;;;;;;;;;;;;;;;5029873;28;19999;-82
2021/10/02 02:45:02;;;;;;;;;;;;;;;;;;5038404;28;19913;-83
2021/10/02 02:47:28;;;;;;;;;;;;;;;;;;4994508;28;19914;-82
2021/10/02 02:49:56;;;;;;;;;;;;;;;;;;4978525;28;19928;-83
2021/10/02 02:52:26;;;;;;;;;;;;;;;;;;5041353;28;19984;-83
2021/10/02 02:55:07;;;;;;;;;;;;;;;;;;5030501;28;19913;-83
2021/10/02 02:57:34;;;;;;;;;;;;;;;;;;4996897;28;19917;-83
2021/10/02 03:00:04;;;;;;;;;;;;;;;;;;5013945;28;20055;-82
2021/10/02 03:02:29;;;;;;;;;;;;;;;;;;5047265;28;19928;-82
2021/10/02 03:04:54;;;;;;;;;;;;;;;;;;4997638;28;20012;-82
2021/10/02 03:07:21;;;;;;;;;;;;;;;;;;4997353;28;19928;-82
2021/10/02 03:09:46;;;;;;;;;;;;;;;;;;4997318;28;19952;-83
2021/10/02 03:12:12;;;;;;;;;;;;;;;;;;5009158;28;20354;-83
2021/10/02 03:14:37;;;;;;;;;;;;;;;;;;5021736;28;19917;-82
2021/10/02 03:17:03;;;;;;;;;;;;;;;;;;5017464;28;19923;-83
2021/10/02 03:19:28;;;;;;;;;;;;;;;;;;5033598;28;20295;-83
2021/10/02 03:21:53;;;;;;;;;;;;;;;;;;5000470;28;20287;-83
2021/10/02 03:24:19;;;;;;;;;;;;;;;;;;5012500;28;19916;-83
2021/10/02 03:26:44;;;;;;;;;;;;;;;;;;5009472;28;19928;-83
2021/10/02 03:29:10;;;;;;;;;;;;;;;;;;5034016;28;19920;-83
2021/10/02 03:31:36;;;;;;;;;;;;;;;;;;5033528;28;19925;-83
2021/10/02 03:34:02;;;;;;;;;;;;;;;;;;5017257;28;20008;-82
2021/10/02 03:36:28;;;;;;;;;;;;;;;;;;5050261;28;20014;-82
2021/10/02 03:38:55;;;;;;;;;;;;;;;;;;5049897;28;20383;-83
2021/10/02 03:41:20;;;;;;;;;;;;;;;;;;5046681;28;20265;-83
2021/10/02 03:43:45;;;;;;;;;;;;;;;;;;5032578;28;19936;-83
2021/10/02 03:46:11;;;;;;;;;;;;;;;;;;5022216;28;19915;-83
2021/10/02 03:48:36;;;;;;;;;;;;;;;;;;4997288;28;19922;-83
2021/10/02 03:51:01;;;;;;;;;;;;;;;;;;4981015;28;19971;-82
2021/10/02 03:53:27;;;;;;;;;;;;;;;;;;5007467;28;19916;-82
2021/10/02 03:55:53;;;;;;;;;;;;;;;;;;5000261;28;20020;-82
2021/10/02 03:58:18;;;;;;;;;;;;;;;;;;5032625;28;20318;-82
2021/10/02 04:00:43;;;;;;;;;;;;;;;;;;5033331;28;20437;-82
2021/10/02 04:03:09;;;;;;;;;;;;;;;;;;5032857;28;20008;-82
2021/10/02 04:05:34;;;;;;;;;;;;;;;;;;4996886;28;19917;-82
2021/10/02 04:07:59;;;;;;;;;;;;;;;;;;5019402;28;19925;-82
2021/10/02 04:10:25;;;;;;;;;;;;;;;;;;4999548;28;20375;-82
2021/10/02 04:12:50;;;;;;;;;;;;;;;;;;5000020;28;19928;-82
2021/10/02 04:15:15;;;;;;;;;;;;;;;;;;5013089;28;19924;-82
2021/10/02 04:17:41;;;;;;;;;;;;;;;;;;5032670;28;20287;-82
2021/10/02 04:20:06;;;;;;;;;;;;;;;;;;5016190;28;19960;-83
2021/10/02 04:22:32;;;;;;;;;;;;;;;;;;5015651;28;20008;-83
2021/10/02 04:24:57;;;;;;;;;;;;;;;;;;5016532;28;20011;-82
2021/10/02 04:27:23;;;;;;;;;;;;;;;;;;5034241;28;19920;-83
2021/10/02 04:29:48;;;;;;;;;;;;;;;;;;4999845;28;19913;-83
2021/10/02 04:32:14;;;;;;;;;;;;;;;;;;4998021;28;20440;-83
2021/10/02 04:34:40;;;;;;;;;;;;;;;;;;5032400;28;20485;-83
2021/10/02 04:37:06;;;;;;;;;;;;;;;;;;5015837;28;19917;-83
2021/10/02 04:39:31;;;;;;;;;;;;;;;;;;5016040;28;19920;-82
2021/10/02 04:41:56;;;;;;;;;;;;;;;;;;5014485;28;20063;-83
2021/10/02 04:44:22;;;;;;;;;;;;;;;;;;5015549;28;19924;-82
2021/10/02 04:46:47;;;;;;;;;;;;;;;;;;5021444;28;19941;-82
2021/10/02 04:49:13;;;;;;;;;;;;;;;;;;4996144;28;20330;-83
2021/10/02 04:51:38;;;;;;;;;;;;;;;;;;5013384;28;19952;-83
2021/10/02 04:54:04;;;;;;;;;;;;;;;;;;5015566;28;20375;-83
2021/10/02 04:56:29;;;;;;;;;;;;;;;;;;5046026;28;20329;-82
2021/10/02 04:58:54;;;;;;;;;;;;;;;;;;5032120;28;19991;-83
2021/10/02 05:01:20;;;;;;;;;;;;;;;;;;5015871;28;19927;-82
2021/10/02 05:03:45;;;;;;;;;;;;;;;;;;4999401;28;19913;-83
2021/10/02 05:06:10;;;;;;;;;;;;;;;;;;4998516;28;19971;-82
2021/10/02 05:08:36;;;;;;;;;;;;;;;;;;5031931;28;20275;-82
2021/10/02 05:11:01;;;;;;;;;;;;;;;;;;5044619;28;19917;-83
2021/10/02 05:13:27;;;;;;;;;;;;;;;;;;5025719;28;19917;-82
2021/10/02 05:15:52;;;;;;;;;;;;;;;;;;5015606;28;19917;-82
2021/10/02 05:18:17;;;;;;;;;;;;;;;;;;5012019;28;19929;-83
2021/10/02 05:20:43;;;;;;;;;;;;;;;;;;5012833;28;19922;-82
2021/10/02 05:23:08;;;;;;;;;;;;;;;;;;5004285;28;19924;-82
2021/10/02 05:25:34;;;;;;;;;;;;;;;;;;4998963;28;19923;-87
2021/10/02 05:28:00;;;;;;;;;;;;;;;;;;4999011;28;20018;-84
2021/10/02 05:30:25;;;;;;;;;;;;;;;;;;5015308;28;19972;-84
2021/10/02 05:32:51;;;;;;;;;;;;;;;;;;5015464;28;20359;-84
2021/10/02 05:35:16;;;;;;;;;;;;;;;;;;4998015;28;20394;-83
2021/10/02 05:37:42;;;;;;;;;;;;;;;;;;5010375;28;19917;-85
2021/10/02 05:40:09;;;;;;;;;;;;;;;;;;5012045;28;20008;-85
2021/10/02 05:42:34;;;;;;;;;;;;;;;;;;5015264;28;19963;-89
2021/10/02 05:45:03;;;;;;;;;;;;;;;;;;5027384;28;19921;-90
2021/10/02 05:47:28;;;;;;;;;;;;;;;;;;5032847;28;19917;-87
2021/10/02 05:49:53;;;;;;;;;;;;;;;;;;5031076;28;19923;-88
2021/10/02 05:52:19;;;;;;;;;;;;;;;;;;5032302;28;19975;-88
2021/10/02 05:54:45;;;;;;;;;;;;;;;;;;5032123;28;19980;-87
2021/10/02 05:57:10;;;;;;;;;;;;;;;;;;5031518;28;19921;-87
2021/10/02 05:59:36;;;;;;;;;;;;;;;;;;5031963;28;19921;-88
2021/10/02 06:02:01;;;;;;;;;;;;;;;;;;5032272;28;19913;-88
2021/10/02 06:04:26;;;;;;;;;;;;;;;;;;5031621;28;19913;-88
2021/10/02 06:06:53;;;;;;;;;;;;;;;;;;5025334;28;19958;-87
2021/10/02 06:09:19;;;;;;;;;;;;;;;;;;5014991;28;19996;-88
2021/10/02 06:11:46;;;;;;;;;;;;;;;;;;4998977;28;20371;-87
2021/10/02 06:14:14;;;;;;;;;;;;;;;;;;5013724;28;19917;-89
2021/10/02 06:16:40;;;;;;;;;;;;;;;;;;5032251;28;19913;-89
2021/10/02 06:19:06;;;;;;;;;;;;;;;;;;5016381;28;19926;-88
2021/10/02 06:21:32;;;;;;;;;;;;;;;;;;4996276;28;19918;-87
2021/10/02 06:23:59;;;;;;;;;;;;;;;;;;5029793;28;19924;-88
2021/10/02 06:26:28;;;;;;;;;;;;;;;;;;5001624;28;19952;-87
2021/10/02 06:28:54;;;;;;;;;;;;;;;;;;5015336;28;19914;-86
2021/10/02 06:31:22;;;;;;;;;;;;;;;;;;5014655;28;19928;-91
2021/10/02 06:33:50;;;;;;;;;;;;;;;;;;5015769;28;19924;-90
2021/10/02 06:36:18;;;;;;;;;;;;;;;;;;5048598;28;19974;-89
2021/10/02 06:38:48;;;;;;;;;;;;;;;;;;4997265;28;19913;-91
2021/10/02 06:41:19;;;;;;;;;;;;;;;;;;4996186;28;20383;-89
2021/10/02 06:43:46;;;;;;;;;;;;;;;;;;4980333;28;19920;-90
2021/10/02 06:46:12;;;;;;;;;;;;;;;;;;4995404;28;19920;-89
2021/10/02 06:48:46;;;;;;;;;;;;;;;;;;5015411;28;19917;-90
2021/10/02 06:51:12;;;;;;;;;;;;;;;;;;5019381;28;19913;-86
2021/10/02 06:53:39;;;;;;;;;;;;;;;;;;5017051;28;19982;-87
2021/10/02 06:56:05;;;;;;;;;;;;;;;;;;5032670;28;19913;-85
2021/10/02 06:58:30;;;;;;;;;;;;;;;;;;5031094;28;20000;-85
2021/10/02 07:00:58;;;;;;;;;;;;;;;;;;5033360;28;19967;-85
2021/10/02 07:03:24;;;;;;;;;;;;;;;;;;5034722;28;19936;-85
2021/10/02 07:05:50;;;;;;;;;;;;;;;;;;5031940;28;19918;-84
2021/10/02 07:08:18;;;;;;;;;;;;;;;;;;4998381;28;19928;-87
2021/10/02 07:10:47;;;;;;;;;;;;;;;;;;5001176;28;19928;-88
2021/10/02 07:13:15;;;;;;;;;;;;;;;;;;5037489;28;19908;-88
2021/10/02 07:15:42;;;;;;;;;;;;;;;;;;5002494;28;19936;-89
2021/10/02 07:18:10;;;;;;;;;;;;;;;;;;5018820;28;19909;-89
2021/10/02 07:20:37;;;;;;;;;;;;;;;;;;5002287;28;19921;-90
2021/10/02 07:23:02;;;;;;;;;;;;;;;;;;5018538;28;19909;-89
2021/10/02 07:25:29;;;;;;;;;;;;;;;;;;5018485;28;19924;-87
2021/10/02 07:27:55;;;;;;;;;;;;;;;;;;5018271;28;19947;-87
2021/10/02 07:30:22;;;;;;;;;;;;;;;;;;5034526;28;19979;-87
2021/10/02 07:32:48;;;;;;;;;;;;;;;;;;5018131;28;19917;-88
2021/10/02 07:35:15;;;;;;;;;;;;;;;;;;5001480;28;19913;-83
2021/10/02 07:37:40;;;;;;;;;;;;;;;;;;5049819;28;20374;-82
2021/10/02 07:40:06;;;;;;;;;;;;;;;;;;5017798;28;19920;-86
2021/10/02 07:42:34;;;;;;;;;;;;;;;;;;5018069;28;20065;-88
2021/10/02 07:45:02;;;;;;;;;;;;;;;;;;5051223;28;19921;-88
2021/10/02 07:47:38;;;;;;;;;;;;;;;;;;5000471;28;19917;-89
2021/10/02 07:50:08;;;;;;;;;;;;;;;;;;5034851;28;19920;-89
2021/10/02 07:52:37;;;;;;;;;;;;;;;;;;5001399;28;19949;-87
2021/10/02 07:55:04;;;;;;;;;;;;;;;;;;4998756;28;19920;-88
2021/10/02 07:57:30;;;;;;;;;;;;;;;;;;4982330;28;20259;-89
2021/10/02 07:59:55;;;;;;;;;;;;;;;;;;5018090;28;19929;-89
2021/10/02 08:02:25;;;;;;;;;;;;;;;;;;4986385;28;21292;-88
2021/10/02 08:04:51;;;;;;;;;;;;;;;;;;4982091;28;19929;-88
2021/10/02 08:07:17;;;;;;;;;;;;;;;;;;5005594;28;19917;-89
2021/10/02 08:09:45;;;;;;;;;;;;;;;;;;5016976;28;20008;-89
2021/10/02 08:12:12;;;;;;;;;;;;;;;;;;5000951;28;19929;-88
2021/10/02 08:14:38;;;;;;;;;;;;;;;;;;5036298;28;19925;-89
2021/10/02 08:17:04;;;;;;;;;;;;;;;;;;5021630;28;19917;-88
2021/10/02 08:19:30;;;;;;;;;;;;;;;;;;5018003;28;20207;-93
2021/10/02 08:21:56;;;;;;;;;;;;;;;;;;5001527;28;19976;-93
2021/10/02 08:24:25;;;;;;;;;;;;;;;;;;5001582;28;19913;-93
2021/10/02 08:26:53;;;;;;;;;;;;;;;;;;5001113;28;19976;-93
2021/10/02 08:29:18;;;;;;;;;;;;;;;;;;5030301;28;19917;-89
2021/10/02 08:31:47;;;;;;;;;;;;;;;;;;4998015;28;20008;-89
2021/10/02 08:34:12;;;;;;;;;;;;;;;;;;5013885;28;19913;-89
2021/10/02 08:36:38;;;;;;;;;;;;;;;;;;4997989;28;20426;-88
2021/10/02 08:39:05;;;;;;;;;;;;;;;;;;5014791;28;19928;-89
2021/10/02 08:41:31;;;;;;;;;;;;;;;;;;5013880;28;19959;-91
2021/10/02 08:44:02;;;;;;;;;;;;;;;;;;5033929;28;19920;-91
2021/10/02 08:46:28;;;;;;;;;;;;;;;;;;5000413;28;20058;-90
2021/10/02 08:49:13;;;;;;;;;;;;;;;;;;5016797;28;20007;-90
2021/10/02 08:51:42;;;;;;;;;;;;;;;;;;5014199;28;20024;-89
2021/10/02 08:54:08;;;;;;;;;;;;;;;;;;4997945;28;19972;-89
2021/10/02 08:56:37;;;;;;;;;;;;;;;;;;4997522;28;19914;-89
2021/10/02 08:59:02;;;;;;;;;;;;;;;;;;5004113;28;20032;-88
2021/10/02 09:01:27;;;;;;;;;;;;;;;;;;5000541;28;20486;-88
2021/10/02 09:03:54;;;;;;;;;;;;;;;;;;5000611;28;19921;-89
2021/10/02 09:06:19;;;;;;;;;;;;;;;;;;4999816;28;19917;-88
2021/10/02 09:08:44;;;;;;;;;;;;;;;;;;5012908;28;19924;-88
2021/10/02 09:11:11;;;;;;;;;;;;;;;;;;5032752;28;19921;-88
2021/10/02 09:13:36;;;;;;;;;;;;;;;;;;4999824;28;19917;-84
2021/10/02 09:16:01;;;;;;;;;;;;;;;;;;5012162;28;19917;-84
2021/10/02 09:18:27;;;;;;;;;;;;;;;;;;5015719;28;19917;-82
2021/10/02 09:21:03;;;;;;;;;;;;;;;;;;5015525;28;19919;-81
2021/10/02 09:23:28;;;;;;;;;;;;;;;;;;5028762;28;19933;-83
2021/10/02 09:25:53;;;;;;;;;;;;;;;;;;5011858;28;19913;-82
2021/10/02 09:28:19;;;;;;;;;;;;;;;;;;5011458;28;19936;-83
2021/10/02 09:30:44;;;;;;;;;;;;;;;;;;5023984;28;19917;-82
2021/10/02 09:33:14;;;;;;;;;;;;;;;;;;5027114;28;19925;-82
2021/10/02 09:35:41;;;;;;;;;;;;;;;;;;5012924;28;20410;-86
2021/10/02 09:38:13;;;;;;;;;;;;;;;;;;5022589;28;19922;-88
2021/10/02 09:40:38;;;;;;;;;;;;;;;;;;4996090;28;19921;-84
2021/10/02 09:43:04;;;;;;;;;;;;;;;;;;5011762;28;19913;-84
2021/10/02 09:45:35;;;;;;;;;;;;;;;;;;5047813;28;19925;-85
2021/10/02 09:48:01;;;;;;;;;;;;;;;;;;5010827;28;19968;-84
2021/10/02 09:50:31;;;;;;;;;;;;;;;;;;5031016;28;19949;-84
2021/10/02 09:53:06;;;;;;;;;;;;;;;;;;4991089;28;19925;-84
2021/10/02 09:55:39;;;;;;;;;;;;;;;;;;5018885;28;20004;-84
2021/10/02 09:58:05;;;;;;;;;;;;;;;;;;5030757;28;19920;-85
2021/10/02 10:00:35;;;;;;;;;;;;;;;;;;5014858;28;19960;-84
2021/10/02 10:03:04;;;;;;;;;;;;;;;;;;4998349;28;19925;-84
2021/10/02 10:05:43;;;;;;;;;;;;;;;;;;5015119;28;20337;-84
2021/10/02 10:08:08;;;;;;;;;;;;;;;;;;5030970;28;19935;-84
2021/10/02 10:10:35;;;;;;;;;;;;;;;;;;5043574;28;20394;-83
2021/10/02 10:13:04;;;;;;;;;;;;;;;;;;5030928;28;20402;-84
2021/10/02 10:15:32;;;;;;;;;;;;;;;;;;5030581;28;20040;-83
2021/10/02 10:17:57;;;;;;;;;;;;;;;;;;5030994;28;19962;-83
2021/10/02 10:20:41;;;;;;;;;;;;;;;;;;5030825;28;20011;-83
2021/10/02 10:23:08;;;;;;;;;;;;;;;;;;5020816;28;19913;-83
2021/10/02 10:25:33;;;;;;;;;;;;;;;;;;5016526;28;19952;-84
2021/10/02 10:28:00;;;;;;;;;;;;;;;;;;5034118;28;19971;-83
2021/10/02 10:30:26;;;;;;;;;;;;;;;;;;5034267;28;20294;-83
2021/10/02 10:32:59;;;;;;;;;;;;;;;;;;5034362;28;19917;-83
2021/10/02 10:35:25;;;;;;;;;;;;;;;;;;5049681;28;20282;-83
2021/10/02 10:37:50;;;;;;;;;;;;;;;;;;5054812;28;19917;-84
2021/10/02 10:40:16;;;;;;;;;;;;;;;;;;5030411;28;19913;-83
2021/10/02 10:42:42;;;;;;;;;;;;;;;;;;5014013;28;19913;-83
2021/10/02 10:45:08;;;;;;;;;;;;;;;;;;5014016;28;19917;-84
2021/10/02 10:47:33;;;;;;;;;;;;;;;;;;5006883;28;19924;-84
2021/10/02 10:49:59;;;;;;;;;;;;;;;;;;5014141;28;19967;-84
2021/10/02 10:52:24;;;;;;;;;;;;;;;;;;5030774;28;19913;-86
2021/10/02 10:54:51;;;;;;;;;;;;;;;;;;5014533;28;19921;-86
2021/10/02 10:57:32;;;;;;;;;;;;;;;;;;5011227;28;19913;-85
2021/10/02 10:59:58;;;;;;;;;;;;;;;;;;5011089;28;19917;-85
2021/10/02 11:02:45;;;;;;;;;;;;;;;;;;4994871;28;20012;-89
2021/10/02 11:05:29;;;;;;;;;;;;;;;;;;5025034;28;19921;-91
2021/10/02 11:07:57;;;;;;;;;;;;;;;;;;5014773;28;19920;-89
2021/10/02 11:10:45;;;;;;;;;;;;;;;;;;5030898;28;19962;-87
2021/10/02 11:13:26;;;;;;;;;;;;;;;;;;5041558;28;19928;-87
2021/10/02 11:15:52;;;;;;;;;;;;;;;;;;5007896;28;19964;-83
2021/10/02 11:18:37;;;;;;;;;;;;;;;;;;5024935;28;19924;-83
2021/10/02 11:21:03;;;;;;;;;;;;;;;;;;5036351;28;19929;-85
2021/10/02 11:26:19;;;;;;;;;;;;;;;;;;5030041;28;19964;-85
2021/10/02 11:28:45;;;;;;;;;;;;;;;;;;5014221;28;19963;-87
2021/10/02 11:31:20;;;;;;;;;;;;;;;;;;4996714;28;19936;-83
2021/10/02 11:33:48;;;;;;;;;;;;;;;;;;5024176;28;19928;-86
2021/10/02 11:39:15;;;;;;;;;;;;;;;;;;5048268;28;20003;-87
2021/10/02 11:41:54;;;;;;;;;;;;;;;;;;5048646;28;19931;-85
2021/10/02 11:44:36;;;;;;;;;;;;;;;;;;4998165;28;20415;-83
2021/10/02 11:47:20;;;;;;;;;;;;;;;;;;4995249;28;19921;-83
2021/10/02 11:49:45;;;;;;;;;;;;;;;;;;5048246;28;20015;-82
2021/10/02 11:52:11;;;;;;;;;;;;;;;;;;4996387;28;20027;-82
2021/10/02 11:54:37;;;;;;;;;;;;;;;;;;4998221;28;19940;-82
2021/10/02 11:57:06;;;;;;;;;;;;;;;;;;4999601;28;20426;-82
2021/10/02 11:59:31;;;;;;;;;;;;;;;;;;5026751;28;19924;-81
2021/10/02 12:02:00;;;;;;;;;;;;;;;;;;5018066;28;19921;-81
2021/10/02 12:04:25;;;;;;;;;;;;;;;;;;5028635;28;19917;-81
2021/10/02 12:06:51;;;;;;;;;;;;;;;;;;5021212;28;19929;-82
2021/10/02 12:09:17;;;;;;;;;;;;;;;;;;5012546;28;19924;-81
2021/10/02 12:11:43;;;;;;;;;;;;;;;;;;5030124;28;19921;-81
2021/10/02 12:14:09;;;;;;;;;;;;;;;;;;5020904;28;20336;-80
2021/10/02 12:16:36;;;;;;;;;;;;;;;;;;4999509;28;19917;-81
2021/10/02 12:19:09;;;;;;;;;;;;;;;;;;5013841;28;19928;-81
2021/10/02 12:21:45;;;;;;;;;;;;;;;;;;5021353;28;19924;-82
2021/10/02 12:24:14;;;;;;;;;;;;;;;;;;5033277;28;19924;-81
2021/10/02 12:26:51;;;;;;;;;;;;;;;;;;5019807;28;19952;-81
2021/10/02 12:29:20;;;;;;;;;;;;;;;;;;5030994;28;19921;-82
2021/10/02 12:32:06;;;;;;;;;;;;;;;;;;5011903;28;20017;-82
2021/10/02 12:34:31;;;;;;;;;;;;;;;;;;5018048;28;19921;-82
2021/10/02 12:37:04;;;;;;;;;;;;;;;;;;5042042;28;19921;-82
2021/10/02 12:39:37;;;;;;;;;;;;;;;;;;4998849;28;19917;-82
2021/10/02 12:42:03;;;;;;;;;;;;;;;;;;4997878;28;19983;-82
2021/10/02 12:44:30;;;;;;;;;;;;;;;;;;5061393;28;19983;-80
2021/10/02 12:46:58;;;;;;;;;;;;;;;;;;5029945;28;19979;-80
2021/10/02 12:49:24;;;;;;;;;;;;;;;;;;5015481;28;19971;-82
2021/10/02 12:51:49;;;;;;;;;;;;;;;;;;5016051;28;19917;-81
2021/10/02 12:54:15;;;;;;;;;;;;;;;;;;5013717;28;19924;-80
2021/10/02 12:56:59;;;;;;;;;;;;;;;;;;5024372;28;19925;-80
2021/10/02 12:59:33;;;;;;;;;;;;;;;;;;5046132;28;19924;-81
2021/10/02 13:01:58;;;;;;;;;;;;;;;;;;5032328;28;19996;-80
2021/10/02 13:04:24;;;;;;;;;;;;;;;;;;5031968;28;20439;-80
2021/10/02 13:06:52;;;;;;;;;;;;;;;;;;5019304;28;19917;-80
2021/10/02 13:09:18;;;;;;;;;;;;;;;;;;5011771;28;19964;-81
2021/10/02 13:11:44;;;;;;;;;;;;;;;;;;5023459;28;19921;-80
2021/10/02 13:14:09;;;;;;;;;;;;;;;;;;5026396;28;19917;-81
2021/10/02 13:16:34;;;;;;;;;;;;;;;;;;5024985;28;20447;-82
2021/10/02 13:19:00;;;;;;;;;;;;;;;;;;5005264;28;19968;-81
2021/10/02 13:21:25;;;;;;;;;;;;;;;;;;5023034;28;20008;-81
2021/10/02 13:23:50;;;;;;;;;;;;;;;;;;5031798;28;20018;-81
2021/10/02 13:26:20;;;;;;;;;;;;;;;;;;4993136;28;19917;-81
2021/10/02 13:28:49;;;;;;;;;;;;;;;;;;5011752;28;20013;-82
2021/10/02 13:31:14;;;;;;;;;;;;;;;;;;5038787;28;19929;-83
2021/10/02 13:33:40;;;;;;;;;;;;;;;;;;5037561;28;19921;-83
2021/10/02 13:36:06;;;;;;;;;;;;;;;;;;5023620;28;19921;-83
2021/10/02 13:38:38;;;;;;;;;;;;;;;;;;5031641;28;20007;-82
2021/10/02 13:41:08;;;;;;;;;;;;;;;;;;5012110;28;20367;-82
2021/10/02 13:43:33;;;;;;;;;;;;;;;;;;5003986;28;19915;-83
2021/10/02 13:45:58;;;;;;;;;;;;;;;;;;5031113;28;19917;-82
2021/10/02 13:48:25;;;;;;;;;;;;;;;;;;5014166;28;20279;-83
2021/10/02 13:50:50;;;;;;;;;;;;;;;;;;5015626;28;19971;-82
2021/10/02 13:53:16;;;;;;;;;;;;;;;;;;5030657;28;19917;-82
2021/10/02 13:55:41;;;;;;;;;;;;;;;;;;5030882;28;19917;-82
2021/10/02 13:58:07;;;;;;;;;;;;;;;;;;5031039;28;19913;-81
2021/10/02 14:00:32;;;;;;;;;;;;;;;;;;5029627;28;19921;-81
2021/10/02 14:02:58;;;;;;;;;;;;;;;;;;5022636;28;19972;-81
2021/10/02 14:05:23;;;;;;;;;;;;;;;;;;4991925;28;19959;-82
2021/10/02 14:07:49;;;;;;;;;;;;;;;;;;4998151;28;19952;-85
2021/10/02 14:10:15;;;;;;;;;;;;;;;;;;5014524;28;19953;-84
2021/10/02 14:12:40;;;;;;;;;;;;;;;;;;4998425;28;20783;-81
2021/10/02 14:15:06;;;;;;;;;;;;;;;;;;4998124;28;19917;-81
2021/10/02 14:17:31;;;;;;;;;;;;;;;;;;5013309;28;19917;-84
2021/10/02 14:19:56;;;;;;;;;;;;;;;;;;5031417;28;19913;-85
2021/10/02 14:22:22;;;;;;;;;;;;;;;;;;5010918;28;19923;-83
2021/10/02 14:24:48;;;;;;;;;;;;;;;;;;5047148;28;19913;-85
2021/10/02 14:27:14;;;;;;;;;;;;;;;;;;5014485;28;19924;-85
2021/10/02 14:29:39;;;;;;;;;;;;;;;;;;5013846;28;19917;-85
2021/10/02 14:32:04;;;;;;;;;;;;;;;;;;5029304;28;19917;-85
2021/10/02 14:34:30;;;;;;;;;;;;;;;;;;5047827;28;19921;-83
2021/10/02 14:36:56;;;;;;;;;;;;;;;;;;5014276;28;19917;-84
2021/10/02 14:39:21;;;;;;;;;;;;;;;;;;5013861;28;19967;-83
2021/10/02 14:41:47;;;;;;;;;;;;;;;;;;4997743;28;19952;-83
2021/10/02 14:44:12;;;;;;;;;;;;;;;;;;4996076;28;19917;-84
2021/10/02 14:46:38;;;;;;;;;;;;;;;;;;4995437;28;19912;-84
2021/10/02 14:49:03;;;;;;;;;;;;;;;;;;5030174;28;19939;-84
2021/10/02 14:51:29;;;;;;;;;;;;;;;;;;4997357;28;19913;-83
2021/10/02 14:53:54;;;;;;;;;;;;;;;;;;4997530;28;19913;-84
2021/10/02 14:56:20;;;;;;;;;;;;;;;;;;5014011;28;20383;-85
2021/10/02 14:58:45;;;;;;;;;;;;;;;;;;5026051;28;19918;-85
2021/10/02 15:01:12;;;;;;;;;;;;;;;;;;4994857;28;20280;-85
2021/10/02 15:03:45;;;;;;;;;;;;;;;;;;5011259;28;19968;-85
2021/10/02 15:06:11;;;;;;;;;;;;;;;;;;5013926;28;19913;-85
2021/10/02 15:08:36;;;;;;;;;;;;;;;;;;4997381;28;19921;-86
2021/10/02 15:11:02;;;;;;;;;;;;;;;;;;4999953;28;19913;-85
2021/10/02 15:13:27;;;;;;;;;;;;;;;;;;5002014;28;19955;-84
2021/10/02 15:15:57;;;;;;;;;;;;;;;;;;5001383;28;19913;-84
2021/10/02 15:18:23;;;;;;;;;;;;;;;;;;5018159;28;19920;-84
2021/10/02 15:20:51;;;;;;;;;;;;;;;;;;5017754;28;19917;-84
2021/10/02 15:23:17;;;;;;;;;;;;;;;;;;5018114;28;19920;-84
2021/10/02 15:25:42;;;;;;;;;;;;;;;;;;5001434;28;19913;-85
2021/10/02 15:28:11;;;;;;;;;;;;;;;;;;5001083;28;20379;-84
2021/10/02 15:30:36;;;;;;;;;;;;;;;;;;5000886;28;19932;-84
2021/10/02 15:33:02;;;;;;;;;;;;;;;;;;5017858;28;19917;-84
2021/10/02 15:35:30;;;;;;;;;;;;;;;;;;5001168;28;19920;-84
2021/10/02 15:37:55;;;;;;;;;;;;;;;;;;5017469;28;19913;-84
2021/10/02 15:40:20;;;;;;;;;;;;;;;;;;5017383;28;20319;-84
2021/10/02 15:42:46;;;;;;;;;;;;;;;;;;5033958;28;19964;-84
2021/10/02 15:45:12;;;;;;;;;;;;;;;;;;5017001;28;19936;-83
2021/10/02 15:47:37;;;;;;;;;;;;;;;;;;5000640;28;19935;-84
2021/10/02 15:50:05;;;;;;;;;;;;;;;;;;5017181;28;19913;-85
2021/10/02 15:52:31;;;;;;;;;;;;;;;;;;5015387;28;19924;-85
2021/10/02 15:54:56;;;;;;;;;;;;;;;;;;4997430;28;19917;-85
2021/10/02 15:57:24;;;;;;;;;;;;;;;;;;5013420;28;19920;-84
2021/10/02 16:00:00;;;;;;;;;;;;;;;;;;5016611;28;19917;-84
2021/10/02 16:02:44;;;;;;;;;;;;;;;;;;5016704;28;19921;-85
2021/10/02 16:05:30;;;;;;;;;;;;;;;;;;5050085;28;19913;-85
2021/10/02 16:07:56;;;;;;;;;;;;;;;;;;5016249;28;20015;-85
2021/10/02 16:10:23;;;;;;;;;;;;;;;;;;5033500;28;19916;-83
2021/10/02 16:12:50;;;;;;;;;;;;;;;;;;5050207;28;19920;-85
2021/10/02 16:15:16;;;;;;;;;;;;;;;;;;5032988;28;19968;-85
2021/10/02 16:17:41;;;;;;;;;;;;;;;;;;5033576;28;19960;-86
2021/10/02 16:20:07;;;;;;;;;;;;;;;;;;5049934;28;19920;-86
2021/10/02 16:22:33;;;;;;;;;;;;;;;;;;5032310;28;19913;-86
2021/10/02 16:24:59;;;;;;;;;;;;;;;;;;5033383;28;19913;-86
2021/10/02 16:27:28;;;;;;;;;;;;;;;;;;5016939;28;19920;-85
2021/10/02 16:29:54;;;;;;;;;;;;;;;;;;5032792;28;19920;-85
2021/10/02 16:32:19;;;;;;;;;;;;;;;;;;5016485;28;19921;-85
2021/10/02 16:34:45;;;;;;;;;;;;;;;;;;5016704;28;19920;-86
2021/10/02 16:37:12;;;;;;;;;;;;;;;;;;5032978;28;19951;-84
2021/10/02 16:39:38;;;;;;;;;;;;;;;;;;5015515;28;20371;-84
2021/10/02 16:42:03;;;;;;;;;;;;;;;;;;5000048;28;19928;-82
2021/10/02 16:44:28;;;;;;;;;;;;;;;;;;5015837;28;19924;-82
2021/10/02 16:47:00;;;;;;;;;;;;;;;;;;5011696;28;19958;-82
2021/10/02 16:49:25;;;;;;;;;;;;;;;;;;4996338;28;19917;-82
2021/10/02 16:51:51;;;;;;;;;;;;;;;;;;5015856;28;20358;-82
2021/10/02 16:54:16;;;;;;;;;;;;;;;;;;4999448;28;19928;-82
2021/10/02 16:56:41;;;;;;;;;;;;;;;;;;5019352;28;20283;-82
2021/10/02 16:59:07;;;;;;;;;;;;;;;;;;5035437;28;20375;-82
2021/10/02 17:01:32;;;;;;;;;;;;;;;;;;5033601;28;19921;-81
2021/10/02 17:03:57;;;;;;;;;;;;;;;;;;5015379;28;19914;-81
2021/10/02 17:06:26;;;;;;;;;;;;;;;;;;4998956;28;19924;-82
2021/10/02 17:08:51;;;;;;;;;;;;;;;;;;5030127;28;20306;-82
2021/10/02 17:11:17;;;;;;;;;;;;;;;;;;5003464;28;19921;-84
2021/10/02 17:13:43;;;;;;;;;;;;;;;;;;4988917;28;19921;-83
2021/10/02 17:16:09;;;;;;;;;;;;;;;;;;5005688;28;20401;-82
2021/10/02 17:18:34;;;;;;;;;;;;;;;;;;5004438;28;20003;-83
2021/10/02 17:21:00;;;;;;;;;;;;;;;;;;5005035;28;19917;-83
2021/10/02 17:23:25;;;;;;;;;;;;;;;;;;5004264;28;19913;-84
2021/10/02 17:25:51;;;;;;;;;;;;;;;;;;4988320;28;19925;-84
2021/10/02 17:28:16;;;;;;;;;;;;;;;;;;4987929;28;19914;-83
2021/10/02 17:30:42;;;;;;;;;;;;;;;;;;5052890;28;19928;-84
2021/10/02 17:33:07;;;;;;;;;;;;;;;;;;4995142;28;19944;-83
2021/10/02 17:35:33;;;;;;;;;;;;;;;;;;4998498;28;20062;-86
2021/10/02 17:38:00;;;;;;;;;;;;;;;;;;5015538;28;19913;-86
2021/10/02 17:40:27;;;;;;;;;;;;;;;;;;4988217;28;20355;-85
2021/10/02 17:42:52;;;;;;;;;;;;;;;;;;4985501;28;19913;-85
2021/10/02 17:45:18;;;;;;;;;;;;;;;;;;5035036;28;19919;-85
2021/10/02 17:47:43;;;;;;;;;;;;;;;;;;5020579;28;19917;-86
2021/10/02 17:50:10;;;;;;;;;;;;;;;;;;4998829;28;19919;-85